SAOC/RCU METAR and TAF weather

Enter ICAO airport designator
Station Type Date Time Source
SAOC METAR 2021/04/18 00:00 UTC NOAA

SAOC 180000Z 02013KT CAVOK 23/16 Q1014


Station Type Date Time Source
SAOC Decoded METAR 2021/04/18 00:00 UTC NOAA

Rio Cuarto Aerodrome, Argentina (SAOC) 33-07S 064-14W 421M
Apr 17, 2021 - 08:00 PM EDT / 2021.04.18 0000 UTC
Wind: from the NNE (020 degrees) at 15 MPH (13 KT):0
Visibility: greater than 7 mile(s):0
Temperature: 73 F (23 C)
Dew Point: 60 F (16 C)
Relative Humidity: 64%
Pressure (altimeter): 29.94 in. Hg (1014 hPa)
ob: SAOC 180000Z 02013KT CAVOK 23/16 Q1014
cycle: 0

Station Type Date Time Source
SAOC TAF 2021/03/12 12:03 UTC NOAA

TAF TAF SAOC 121100Z 1212/1312 16015KT 6000 TSRA SCT012 FEW040CB OVC050 TX19/1218Z TN16/1309Z PROB40 1215/1218 07005KT 6000 RADZ BKN010 BKN040 FEW040CB
BECMG 1218/1221 05015KT 5000 TSRA BKN012 OVC040 FEW050CB

Example: see airport list